Time;durP1;ratioP1;P1;durP2;ratioP2;P2;SDS_P1;SDS_P2;PMS_P1;PMS_P2;Temp;Humidity;BMP_temperature;BMP_pressure;BME280_temperature;BME280_humidity;BME280_pressure;Samples;Min_cycle;Max_cycle;Signal;HPM_P1;HPM_P2
2022/12/05 00:02:15;;;;;;;27.70;14.77;;;4.60;1.00;;;;;;5084544;28;20424;-79
2022/12/05 00:05:27;;;;;;;28.27;14.80;;;4.60;1.00;;;;;;5077425;28;20208;-84
2022/12/05 00:14:37;;;;;;;25.70;14.23;;;4.60;1.00;;;;;;5094160;28;20392;-85
2022/12/05 00:17:02;;;;;;;27.10;15.17;;;4.60;1.00;;;;;;5082368;28;20783;-84
2022/12/05 00:26:30;;;;;;;29.37;15.37;;;4.60;1.00;;;;;;5090806;28;20400;-79
2022/12/05 00:36:11;;;;;;;24.43;13.87;;;4.60;1.00;;;;;;5077713;28;20388;-80
2022/12/05 00:45:39;;;;;;;28.10;14.90;;;4.60;1.00;;;;;;5093393;28;20457;-79
2022/12/05 00:51:30;;;;;;;25.57;14.53;;;4.60;1.00;;;;;;5090075;28;20563;-79
2022/12/05 00:54:51;;;;;;;29.70;16.00;;;4.70;1.00;;;;;;5087508;28;20519;-79
2022/12/05 00:57:28;;;;;;;24.27;14.43;;;4.70;1.00;;;;;;5083114;28;20536;-79
2022/12/05 01:00:27;;;;;;;28.10;15.30;;;4.70;1.00;;;;;;5081183;28;20443;-79
2022/12/05 01:10:15;;;;;;;27.17;13.63;;;4.60;1.00;;;;;;5088438;28;20416;-79
2022/12/05 01:12:41;;;;;;;27.53;15.13;;;4.60;1.00;;;;;;5088834;28;20429;-78
2022/12/05 01:21:51;;;;;;;26.30;15.17;;;4.70;1.00;;;;;;5090673;28;20737;-79
2022/12/05 01:27:39;;;;;;;28.03;14.70;;;4.80;1.00;;;;;;5076266;28;20448;-79
2022/12/05 01:33:58;;;;;;;29.47;14.47;;;4.70;1.00;;;;;;5083423;28;20437;-80
2022/12/05 01:43:15;;;;;;;28.93;14.30;;;4.70;1.00;;;;;;5085647;28;20454;-84
2022/12/05 01:45:58;;;;;;;26.27;13.97;;;4.80;1.00;;;;;;5075720;28;20429;-84
2022/12/05 01:49:00;;;;;;;26.30;13.83;;;4.70;1.00;;;;;;5086607;28;20424;-84
2022/12/05 01:51:29;;;;;;;33.13;14.93;;;4.70;1.00;;;;;;5091948;28;21030;-79
2022/12/05 02:00:57;;;;;;;28.97;15.40;;;4.70;1.00;;;;;;5096041;28;20964;-79
2022/12/05 02:04:09;;;;;;;24.90;13.60;;;4.70;1.00;;;;;;5083971;28;20949;-79
2022/12/05 02:06:57;;;;;;;28.67;14.60;;;4.70;1.00;;;;;;5075857;28;20445;-80
2022/12/05 02:09:57;;;;;;;25.37;13.73;;;4.70;1.00;;;;;;5089743;28;20405;-79
2022/12/05 02:15:54;;;;;;;34.00;15.30;;;4.70;1.00;;;;;;5082561;28;20413;-79
2022/12/05 02:18:46;;;;;;;27.17;14.87;;;4.60;1.00;;;;;;5075919;28;20806;-79
2022/12/05 02:21:47;;;;;;;30.50;14.70;;;4.70;1.00;;;;;;5082819;28;20439;-85
2022/12/05 02:24:46;;;;;;;27.67;14.37;;;4.70;1.00;;;;;;5090456;28;20412;-85
2022/12/05 02:27:38;;;;;;;34.60;15.27;;;4.60;1.00;;;;;;5074768;28;20394;-85
2022/12/05 02:30:51;;;;;;;26.83;15.27;;;4.60;1.00;;;;;;5089026;28;20810;-85
2022/12/05 02:37:10;;;;;;;26.50;13.30;;;4.70;1.00;;;;;;5076062;28;20489;-85
2022/12/05 02:39:57;;;;;;;28.23;15.10;;;4.70;1.00;;;;;;5086843;28;20451;-85
2022/12/05 02:43:00;;;;;;;28.90;13.90;;;4.70;1.00;;;;;;5074899;28;20408;-85
2022/12/05 02:49:11;;;;;;;29.60;15.60;;;4.70;1.00;;;;;;5081530;28;20432;-85
2022/12/05 02:51:56;;;;;;;28.77;15.33;;;4.80;1.00;;;;;;5074088;28;20463;-80
2022/12/05 02:54:58;;;;;;;55.70;16.47;;;4.80;1.00;;;;;;5081834;28;20417;-79
2022/12/05 02:58:00;;;;;;;27.27;15.10;;;4.80;1.00;;;;;;5085869;28;20913;-78
2022/12/05 03:00:58;;;;;;;29.97;15.13;;;4.80;1.00;;;;;;5095044;28;20384;-79
2022/12/05 03:03:29;;;;;;;31.23;14.37;;;4.80;1.00;;;;;;5089382;28;20477;-79
2022/12/05 03:06:27;;;;;;;28.67;14.93;;;4.80;1.00;;;;;;5093965;28;20427;-85
2022/12/05 03:19:02;;;;;;;30.00;14.70;;;4.70;1.00;;;;;;5075057;28;20432;-85
2022/12/05 03:22:05;;;;;;;31.20;13.80;;;4.60;1.00;;;;;;5077709;28;20436;-79
2022/12/05 03:28:07;;;;;;;34.57;13.60;;;4.70;1.00;;;;;;5084565;28;20424;-79
2022/12/05 03:30:36;;;;;;;28.53;14.97;;;4.70;1.00;;;;;;5074399;28;20468;-79
2022/12/05 03:33:32;;;;;;;29.30;14.97;;;4.70;1.00;;;;;;5080201;28;20432;-79
2022/12/05 03:39:57;;;;;;;29.20;14.40;;;4.60;1.00;;;;;;5077057;28;20403;-78
2022/12/05 03:42:32;;;;;;;28.77;14.50;;;4.60;1.00;;;;;;5091154;28;20420;-79
2022/12/05 03:52:41;;;;;;;40.47;14.90;;;4.70;1.00;;;;;;5083634;28;20462;-80
2022/12/05 03:55:57;;;;;;;32.80;15.23;;;4.60;1.00;;;;;;4983999;28;20445;-78
2022/12/05 03:58:58;;;;;;;34.37;15.40;;;4.60;1.00;;;;;;4989490;28;20459;-79
2022/12/05 04:05:27;;;;;;;34.70;15.38;;;4.50;1.00;;;;;;4984146;28;20440;-79
2022/12/05 04:08:30;;;;;;;28.83;14.67;;;4.50;1.00;;;;;;4993200;28;20216;-85
2022/12/05 04:11:29;;;;;;;35.67;16.60;;;4.40;1.00;;;;;;4976728;28;20451;-85
2022/12/05 04:17:36;;;;;;;36.23;16.10;;;4.40;1.00;;;;;;4982362;28;20381;-85
2022/12/05 04:30:48;;;;;;;36.47;16.37;;;4.50;1.00;;;;;;5023378;28;20457;-85
2022/12/05 04:34:09;;;;;;;37.50;15.73;;;4.50;1.00;;;;;;5017104;28;20438;-85
2022/12/05 04:37:03;;;;;;;37.90;15.90;;;4.50;1.00;;;;;;5012481;28;20455;-80
2022/12/05 04:39:54;;;;;;;36.73;14.73;;;4.50;1.00;;;;;;5015179;28;20505;-85
2022/12/05 04:42:25;;;;;;;42.80;16.10;;;4.50;1.00;;;;;;5032068;28;20409;-85
2022/12/05 04:45:17;;;;;;;41.80;16.90;;;4.60;1.00;;;;;;5015103;28;20482;-85
2022/12/05 04:51:57;;;;;;;39.97;16.67;;;4.60;1.00;;;;;;5012121;28;20989;-85
2022/12/05 04:54:58;;;;;;;45.40;17.47;;;4.60;1.00;;;;;;5029775;28;20427;-79
2022/12/05 04:57:30;;;;;;;39.83;15.83;;;4.60;1.00;;;;;;5030804;28;20415;-79
2022/12/05 04:59:58;;;;;;;46.20;18.20;;;4.60;1.00;;;;;;5030403;28;20427;-82
2022/12/05 05:02:36;;;;;;;41.87;16.67;;;4.60;1.00;;;;;;5014154;28;20421;-81
2022/12/05 05:05:18;;;;;;;44.63;17.87;;;4.60;1.00;;;;;;5031370;28;20501;-78
2022/12/05 05:08:18;;;;;;;38.17;16.00;;;4.60;1.00;;;;;;5031903;28;20433;-81
2022/12/05 05:11:18;;;;;;;41.63;16.20;;;4.60;1.00;;;;;;5064099;28;20449;-81
2022/12/05 05:17:06;;;;;;;40.23;17.00;;;4.70;1.00;;;;;;5073322;28;20404;-80
2022/12/05 05:19:46;;;;;;;43.57;16.70;;;4.60;1.00;;;;;;5076949;28;20421;-80
2022/12/05 05:22:16;;;;;;;41.10;16.60;;;4.60;1.00;;;;;;5087425;28;20186;-79
2022/12/05 05:24:46;;;;;;;39.30;17.07;;;4.50;1.00;;;;;;5082926;28;20791;-76
2022/12/05 05:27:16;;;;;;;45.27;17.37;;;4.60;1.00;;;;;;5084342;28;20887;-75
2022/12/05 05:29:46;;;;;;;37.00;16.80;;;4.60;1.00;;;;;;5080600;28;21001;-76
2022/12/05 05:32:34;;;;;;;41.20;18.17;;;4.50;1.00;;;;;;5079527;28;20967;-76
2022/12/05 05:35:28;;;;;;;42.47;17.03;;;4.40;1.00;;;;;;5080204;28;20446;-77
2022/12/05 05:38:04;;;;;;;47.07;18.37;;;4.30;1.00;;;;;;5077608;28;20428;-76
2022/12/05 05:40:46;;;;;;;52.20;17.80;;;4.30;1.00;;;;;;5092247;28;20899;-76
2022/12/05 05:43:16;;;;;;;43.30;17.92;;;4.30;1.00;;;;;;5076073;28;20433;-76
2022/12/05 05:45:46;;;;;;;41.07;17.20;;;4.40;1.00;;;;;;5081839;28;20569;-76
2022/12/05 05:48:46;;;;;;;42.73;17.40;;;4.40;1.00;;;;;;5089219;28;20919;-75
2022/12/05 05:51:13;;;;;;;43.42;17.40;;;4.50;1.00;;;;;;5083653;28;20498;-75
2022/12/05 05:53:47;;;;;;;43.83;16.73;;;4.60;1.00;;;;;;5091326;28;20181;-77
2022/12/05 05:56:15;;;;;;;39.93;17.53;;;4.70;1.00;;;;;;5083638;28;20404;-76
2022/12/05 05:59:04;;;;;;;48.00;17.77;;;4.70;1.00;;;;;;5075570;28;20462;-75
2022/12/05 06:01:34;;;;;;;38.23;17.27;;;4.70;1.00;;;;;;5075918;28;20476;-77
2022/12/05 06:04:16;;;;;;;50.07;16.77;;;4.70;1.00;;;;;;5081807;28;20453;-76
2022/12/05 06:07:16;;;;;;;41.87;16.63;;;4.80;1.00;;;;;;5095680;28;20420;-75
2022/12/05 06:10:16;;;;;;;34.83;15.13;;;4.80;1.00;;;;;;5076047;28;20421;-80
2022/12/05 06:12:46;;;;;;;40.33;16.17;;;4.80;1.00;;;;;;5082898;28;20420;-81
2022/12/05 06:15:16;;;;;;;38.90;17.67;;;4.80;1.00;;;;;;5095072;28;20789;-81
2022/12/05 06:17:46;;;;;;;37.40;17.17;;;4.80;1.00;;;;;;5074356;28;20447;-81
2022/12/05 06:21:09;;;;;;;44.53;17.33;;;4.70;1.00;;;;;;5075130;28;20400;-81
2022/12/05 06:26:56;;;;;;;44.00;16.90;;;4.70;1.00;;;;;;5007263;28;20923;-81
2022/12/05 06:29:46;;;;;;;37.70;15.60;;;4.60;1.00;;;;;;4997454;28;20516;-81
2022/12/05 06:32:12;;;;;;;41.37;17.63;;;4.70;1.00;;;;;;4980836;28;20259;-70
2022/12/05 06:34:38;;;;;;;48.40;17.83;;;4.70;1.00;;;;;;5002939;28;20443;-70
2022/12/05 06:37:03;;;;;;;41.33;16.37;;;4.70;1.00;;;;;;5003983;28;20185;-70
2022/12/05 06:39:29;;;;;;;36.23;16.50;;;4.60;1.00;;;;;;5003657;28;20336;-69
2022/12/05 06:41:55;;;;;;;43.33;16.60;;;4.60;1.00;;;;;;5005712;28;20186;-69
2022/12/05 06:44:21;;;;;;;58.40;17.30;;;4.70;1.00;;;;;;5006486;28;20208;-70
2022/12/05 06:46:47;;;;;;;47.37;18.27;;;4.70;1.00;;;;;;5011837;28;20192;-70
2022/12/05 06:49:13;;;;;;;48.17;17.30;;;4.70;1.00;;;;;;5004773;28;20741;-70
2022/12/05 06:51:39;;;;;;;47.53;18.00;;;4.70;1.00;;;;;;5005367;28;20467;-70
2022/12/05 06:54:05;;;;;;;52.37;17.77;;;4.70;1.00;;;;;;5005426;28;20791;-70
2022/12/05 06:56:31;;;;;;;40.30;17.20;;;4.70;1.00;;;;;;5012488;28;20424;-70
2022/12/05 06:58:57;;;;;;;43.43;17.60;;;4.70;1.00;;;;;;5079979;28;20171;-70
2022/12/05 07:01:42;;;;;;;46.07;17.80;;;4.70;1.00;;;;;;5085672;28;20569;-72
2022/12/05 07:04:24;;;;;;;44.53;18.17;;;4.70;1.00;;;;;;5087940;28;20669;-76
2022/12/05 07:07:00;;;;;;;38.10;17.03;;;4.70;1.00;;;;;;5081506;28;20510;-76
2022/12/05 07:09:47;;;;;;;55.50;17.97;;;4.70;1.00;;;;;;5075279;28;20499;-70
2022/12/05 07:12:15;;;;;;;47.13;19.07;;;4.80;1.00;;;;;;5072701;28;20991;-69
2022/12/05 07:14:41;;;;;;;47.37;17.83;;;4.70;1.00;;;;;;5078772;28;20412;-70
2022/12/05 07:17:07;;;;;;;47.67;18.63;;;4.80;1.00;;;;;;5086330;28;20400;-70
2022/12/05 07:19:33;;;;;;;48.10;17.80;;;4.90;1.00;;;;;;5078758;28;20422;-70
2022/12/05 07:21:58;;;;;;;44.03;17.37;;;4.90;1.00;;;;;;5078890;28;20551;-70
2022/12/05 07:24:25;;;;;;;48.43;17.90;;;4.90;1.00;;;;;;5068717;28;20726;-71
2022/12/05 07:26:50;;;;;;;42.17;18.00;;;4.80;1.00;;;;;;5075446;28;20237;-71
2022/12/05 07:29:16;;;;;;;49.27;18.13;;;4.80;1.00;;;;;;5067343;28;20453;-71
2022/12/05 07:31:42;;;;;;;49.03;17.97;;;4.80;1.00;;;;;;5077295;28;20650;-70
2022/12/05 07:34:08;;;;;;;45.47;17.90;;;4.90;1.00;;;;;;5082234;28;20170;-71
2022/12/05 07:36:33;;;;;;;46.60;17.63;;;5.00;1.00;;;;;;5081375;28;20247;-70
2022/12/05 07:38:59;;;;;;;43.40;17.33;;;5.00;1.00;;;;;;5077666;28;20425;-69
2022/12/05 07:41:28;;;;;;;40.53;17.43;;;4.90;1.00;;;;;;5090238;28;20174;-69
2022/12/05 07:43:55;;;;;;;42.20;17.47;;;5.00;1.00;;;;;;5080339;28;20194;-70
2022/12/05 07:46:21;;;;;;;48.57;17.60;;;5.00;1.00;;;;;;5077583;28;20899;-69
2022/12/05 07:48:48;;;;;;;34.13;15.93;;;5.10;1.00;;;;;;5085820;28;20455;-70
2022/12/05 07:51:14;;;;;;;36.60;16.50;;;4.90;1.00;;;;;;5081817;28;20575;-70
2022/12/05 07:53:42;;;;;;;38.87;16.80;;;4.90;1.00;;;;;;5078105;28;20538;-70
2022/12/05 07:56:17;;;;;;;47.63;16.80;;;4.90;1.00;;;;;;5074169;28;20429;-83
2022/12/05 07:59:16;;;;;;;38.93;17.20;;;4.90;1.00;;;;;;5074227;28;20417;-88
2022/12/05 08:01:52;;;;;;;45.20;17.13;;;4.80;1.00;;;;;;5080326;28;20915;-88
2022/12/05 08:04:40;;;;;;;43.77;17.73;;;4.90;1.00;;;;;;5094889;28;20415;-88
2022/12/05 08:07:16;;;;;;;41.80;17.20;;;5.00;1.00;;;;;;5090635;28;20421;-88
2022/12/05 08:10:16;;;;;;;46.27;17.37;;;5.10;1.00;;;;;;5085112;28;20417;-88
2022/12/05 08:13:16;;;;;;;40.90;17.47;;;5.10;1.00;;;;;;5075303;28;20439;-88
2022/12/05 08:16:18;;;;;;;35.90;17.00;;;5.00;1.00;;;;;;5077730;28;20482;-88
2022/12/05 08:19:16;;;;;;;39.37;15.57;;;5.00;1.00;;;;;;5078078;28;20420;-88
2022/12/05 08:21:46;;;;;;;41.00;17.47;;;5.00;1.00;;;;;;5080024;28;20441;-88
2022/12/05 08:24:16;;;;;;;40.37;16.90;;;5.10;1.00;;;;;;5076069;28;20424;-82
2022/12/05 08:26:46;;;;;;;47.17;18.50;;;5.10;1.00;;;;;;5086135;28;20454;-81
2022/12/05 08:29:46;;;;;;;41.47;17.97;;;5.00;1.00;;;;;;5076449;28;20481;-81
2022/12/05 08:32:46;;;;;;;43.80;17.60;;;5.10;1.00;;;;;;5085166;28;20456;-81
2022/12/05 08:35:46;;;;;;;43.40;17.17;;;5.10;1.00;;;;;;5074735;28;20416;-81
2022/12/05 08:38:16;;;;;;;39.10;15.97;;;5.00;1.00;;;;;;5075014;28;20436;-81
2022/12/05 08:41:05;;;;;;;42.00;18.70;;;5.00;1.00;;;;;;5081425;28;20427;-82
2022/12/05 08:44:17;;;;;;;43.17;18.07;;;5.10;1.00;;;;;;5080483;28;20808;-82
2022/12/05 08:47:10;;;;;;;47.03;19.17;;;5.20;1.00;;;;;;5080241;28;20546;-82
2022/12/05 08:49:58;;;;;;;41.03;18.17;;;5.20;1.00;;;;;;5101074;28;20872;-82
2022/12/05 08:53:04;;;;;;;44.30;18.70;;;5.20;1.00;;;;;;5078701;28;20452;-81
2022/12/05 08:55:47;;;;;;;46.20;18.33;;;5.20;1.00;;;;;;5081436;28;20508;-81
2022/12/05 08:58:17;;;;;;;48.43;17.87;;;5.20;1.00;;;;;;5081435;28;20420;-82
2022/12/05 09:00:46;;;;;;;42.80;18.10;;;5.20;1.00;;;;;;5090026;28;20409;-83
2022/12/05 09:03:46;;;;;;;46.70;18.60;;;5.10;1.00;;;;;;5077590;28;20932;-81
2022/12/05 09:06:40;;;;;;;49.93;18.80;;;5.10;1.00;;;;;;5082681;28;20779;-81
2022/12/05 09:09:17;;;;;;;53.17;20.00;;;5.20;1.00;;;;;;5089703;28;20428;-82
2022/12/05 09:11:49;;;;;;;45.87;19.27;;;5.20;1.00;;;;;;5080170;28;21012;-80
2022/12/05 09:14:17;;;;;;;49.43;19.43;;;5.30;1.00;;;;;;5088198;28;20425;-81
2022/12/05 09:16:46;;;;;;;48.10;18.13;;;5.40;1.00;;;;;;5078313;28;20487;-81
2022/12/05 09:19:52;;;;;;;47.23;19.17;;;5.20;1.00;;;;;;5088994;28;20420;-80
2022/12/05 09:22:46;;;;;;;49.30;18.60;;;5.20;1.00;;;;;;5080270;28;20451;-81
2022/12/05 09:25:16;;;;;;;52.27;18.73;;;5.30;1.00;;;;;;5096392;28;20409;-87
2022/12/05 09:27:46;;;;;;;45.27;19.23;;;5.40;1.00;;;;;;5089447;28;20488;-87
2022/12/05 09:30:16;;;;;;;41.50;17.37;;;5.50;1.00;;;;;;5085209;28;20907;-87
2022/12/05 09:37:17;;;;;;;46.43;17.50;;;5.30;1.00;;;;;;5088683;28;20419;-87
2022/12/05 09:40:17;;;;;;;45.43;19.37;;;5.50;1.00;;;;;;5092585;28;20445;-87
2022/12/05 09:43:22;;;;;;;39.13;17.20;;;5.40;1.00;;;;;;5082954;28;20421;-87
2022/12/05 09:46:22;;;;;;;40.97;17.83;;;5.40;1.00;;;;;;5085122;28;20424;-87
2022/12/05 09:49:00;;;;;;;45.70;17.37;;;5.40;1.00;;;;;;5076292;28;20448;-87
2022/12/05 09:51:48;;;;;;;40.37;16.90;;;5.40;1.00;;;;;;5075465;28;20456;-87
2022/12/05 09:54:14;;;;;;;40.57;18.27;;;5.40;1.00;;;;;;5084255;28;20413;-87
2022/12/05 09:56:50;;;;;;;35.97;17.17;;;5.50;1.00;;;;;;5102373;28;20421;-87
2022/12/05 09:59:19;;;;;;;40.23;16.87;;;5.40;1.00;;;;;;5076373;28;20409;-87
2022/12/05 10:02:39;;;;;;;40.20;16.93;;;5.20;1.00;;;;;;5079914;28;20417;-87
2022/12/05 10:05:46;;;;;;;41.23;18.43;;;5.30;1.00;;;;;;5018022;28;20437;-87
2022/12/05 10:09:07;;;;;;;41.30;17.30;;;5.40;1.00;;;;;;5018020;28;20525;-87
2022/12/05 10:14:57;;;;;;;32.90;15.57;;;5.80;1.00;;;;;;4980105;28;20776;-81
2022/12/05 10:17:51;;;;;;;37.70;16.87;;;5.70;1.00;;;;;;4981419;28;20445;-81
2022/12/05 10:20:34;;;;;;;33.00;15.07;;;5.80;1.00;;;;;;4984769;28;20544;-81
2022/12/05 10:23:10;;;;;;;30.70;14.97;;;5.80;1.00;;;;;;4985444;28;20498;-80
2022/12/05 10:25:58;;;;;;;32.80;14.50;;;5.80;1.00;;;;;;4981774;28;20449;-81
2022/12/05 10:28:57;;;;;;;33.27;14.60;;;5.90;1.00;;;;;;4978982;28;20425;-81
2022/12/05 10:31:28;;;;;;;32.80;15.60;;;6.00;1.00;;;;;;4974723;28;20649;-81
2022/12/05 10:34:38;;;;;;;36.53;14.93;;;6.00;1.00;;;;;;4979442;28;21004;-85
2022/12/05 10:37:29;;;;;;;30.13;15.03;;;6.20;1.00;;;;;;4968840;28;20509;-83
2022/12/05 10:43:36;;;;;;;30.90;14.63;;;6.30;1.00;;;;;;5025075;28;20409;-83
2022/12/05 10:46:23;;;;;;;29.80;13.80;;;6.10;1.00;;;;;;5067321;28;20420;-82
2022/12/05 10:52:12;;;;;;;24.77;11.80;;;6.30;1.00;;;;;;5084616;28;20529;-79
2022/12/05 10:55:01;;;;;;;27.67;12.20;;;6.30;1.00;;;;;;5091427;28;20456;-86
2022/12/05 10:57:31;;;;;;;25.20;11.87;;;6.40;1.00;;;;;;5080427;28;20416;-83
2022/12/05 11:03:32;;;;;;;20.33;9.67;;;6.20;1.00;;;;;;5080355;28;20466;-80
2022/12/05 11:06:25;;;;;;;22.07;10.40;;;6.20;1.00;;;;;;5087896;28;20423;-81
2022/12/05 11:09:28;;;;;;;22.13;10.93;;;6.10;1.00;;;;;;5084023;28;20433;-81
2022/12/05 11:12:14;;;;;;;17.70;10.70;;;6.10;1.00;;;;;;5004840;28;20485;-77
2022/12/05 11:15:12;;;;;;;18.60;11.67;;;6.20;1.00;;;;;;4995585;28;20562;-72
2022/12/05 11:18:11;;;;;;;18.47;10.50;;;6.20;1.00;;;;;;4994584;28;20443;-80
2022/12/05 11:20:42;;;;;;;23.30;11.13;;;6.20;1.00;;;;;;5011717;28;20457;-76
2022/12/05 11:23:23;;;;;;;20.20;11.20;;;6.30;1.00;;;;;;5008410;28;20494;-74
2022/12/05 11:25:50;;;;;;;17.10;9.47;;;6.40;1.00;;;;;;5005819;28;20459;-73
2022/12/05 11:28:15;;;;;;;18.80;9.60;;;6.30;1.00;;;;;;5002285;28;20412;-73
2022/12/05 11:31:04;;;;;;;18.63;8.83;;;6.30;1.00;;;;;;5010799;28;20572;-73
2022/12/05 11:33:36;;;;;;;14.73;8.90;;;6.40;1.00;;;;;;5012021;28;20192;-80
2022/12/05 11:36:47;;;;;;;15.70;9.07;;;6.40;1.00;;;;;;5007769;28;20435;-82
2022/12/05 11:43:10;;;;;;;14.73;8.77;;;6.10;1.00;;;;;;5009143;28;20403;-82
2022/12/05 11:46:03;;;;;;;20.43;10.07;;;6.10;1.00;;;;;;5012078;28;20961;-80
2022/12/05 11:52:15;;;;;;;16.17;8.97;;;6.20;1.00;;;;;;5073438;28;20537;-80
2022/12/05 11:55:18;;;;;;;12.60;6.80;;;6.00;1.00;;;;;;5087247;28;20405;-81
2022/12/05 12:01:37;;;;;;;19.90;9.57;;;5.90;1.00;;;;;;5074658;28;20380;-86
2022/12/05 12:04:41;;;;;;;18.03;9.03;;;5.90;1.00;;;;;;5077098;28;20794;-86
2022/12/05 12:07:42;;;;;;;17.53;9.70;;;6.20;1.00;;;;;;5081721;28;20765;-86
2022/12/05 12:10:27;;;;;;;19.27;8.37;;;6.10;1.00;;;;;;5010070;28;20436;-85
2022/12/05 12:13:18;;;;;;;18.60;8.77;;;6.10;1.00;;;;;;4986191;28;20538;-81
2022/12/05 12:16:23;;;;;;;13.47;8.40;;;5.90;1.00;;;;;;5011744;28;20919;-81
2022/12/05 12:19:35;;;;;;;23.47;10.73;;;5.70;1.00;;;;;;5004881;28;20515;-81
2022/12/05 12:25:41;;;;;;;18.27;9.63;;;5.70;1.00;;;;;;4991911;28;20427;-81
2022/12/05 12:28:40;;;;;;;18.97;9.50;;;5.80;1.00;;;;;;5005067;28;20435;-81
2022/12/05 12:31:18;;;;;;;17.80;8.90;;;5.90;1.00;;;;;;5015608;28;20463;-81
2022/12/05 12:34:29;;;;;;;20.70;9.30;;;6.00;1.00;;;;;;5013922;28;20442;-78
2022/12/05 12:40:21;;;;;;;18.83;9.30;;;6.10;1.00;;;;;;4956946;28;20417;-80
2022/12/05 12:46:23;;;;;;;23.17;10.37;;;6.10;1.00;;;;;;4947041;28;21183;-84
2022/12/05 12:49:20;;;;;;;19.70;9.63;;;6.20;1.00;;;;;;5039216;28;21010;-86
2022/12/05 12:52:00;;;;;;;17.50;10.00;;;6.30;1.00;;;;;;5034434;28;20465;-86
2022/12/05 13:01:51;;;;;;;25.07;11.07;;;6.20;1.00;;;;;;5045087;28;20400;-84
2022/12/05 13:05:12;;;;;;;21.80;10.90;;;6.20;1.00;;;;;;5039238;28;20434;-84
2022/12/05 13:11:41;;;;;;;27.03;11.93;;;6.40;1.00;;;;;;5069535;28;20542;-84
2022/12/05 13:14:13;;;;;;;25.23;12.07;;;6.40;1.00;;;;;;5096758;28;20408;-81
2022/12/05 13:16:57;;;;;;;24.40;11.73;;;6.50;1.00;;;;;;5089139;28;20995;-82
2022/12/05 13:29:32;;;;;;;25.20;12.33;;;6.30;1.00;;;;;;5083335;28;20435;-85
2022/12/05 13:47:55;;;;;;;31.73;14.00;;;6.40;1.00;;;;;;5084141;28;20403;-85
2022/12/05 13:51:06;;;;;;;33.57;13.43;;;6.40;1.00;;;;;;5077932;28;20413;-86
2022/12/05 13:57:38;;;;;;;27.43;13.70;;;6.50;1.00;;;;;;5091076;28;20407;-86
2022/12/05 14:00:07;;;;;;;36.33;13.70;;;6.50;1.00;;;;;;5076324;28;20534;-86
2022/12/05 14:09:16;;;;;;;31.17;13.67;;;6.30;1.00;;;;;;5082922;28;20470;-89
2022/12/05 14:22:20;;;;;;;33.30;12.10;;;6.50;1.00;;;;;;5077310;28;20455;-84
2022/12/05 14:28:36;;;;;;;24.73;10.57;;;6.50;1.00;;;;;;4985853;28;20436;-88
2022/12/05 14:34:26;;;;;;;26.43;12.43;;;6.40;1.00;;;;;;4984455;28;20477;-86
2022/12/05 14:44:14;;;;;;;28.10;13.10;;;6.40;1.00;;;;;;4994286;28;20408;-82
2022/12/05 14:50:44;;;;;;;28.47;12.80;;;6.50;1.00;;;;;;4993027;28;21030;-83
2022/12/05 14:53:53;;;;;;;25.40;11.20;;;6.50;1.00;;;;;;4985431;28;20441;-82
2022/12/05 14:56:43;;;;;;;24.20;12.00;;;6.50;1.00;;;;;;4991073;28;20779;-81
2022/12/05 15:02:38;;;;;;;29.87;13.47;;;6.60;1.00;;;;;;5071486;28;20411;-87
2022/12/05 15:05:36;;;;;;;24.87;13.23;;;6.60;1.00;;;;;;5074302;28;20409;-87
2022/12/05 15:11:28;;;;;;;31.70;12.43;;;6.60;1.00;;;;;;5079098;28;20809;-86
2022/12/05 15:18:04;;;;;;;29.97;12.13;;;6.70;1.00;;;;;;5088229;28;20755;-84
2022/12/05 15:21:00;;;;;;;28.03;12.77;;;6.70;1.00;;;;;;4974365;28;20417;-88
2022/12/05 15:33:30;;;;;;;25.00;12.33;;;6.40;1.00;;;;;;4974522;28;20440;-88
2022/12/05 15:39:55;;;;;;;27.07;12.77;;;6.40;1.00;;;;;;4993497;28;20436;-88
2022/12/05 15:42:43;;;;;;;33.27;13.30;;;6.40;1.00;;;;;;4975898;28;20417;-86
2022/12/05 15:45:26;;;;;;;28.47;12.80;;;6.40;1.00;;;;;;4977244;28;20409;-87
2022/12/05 15:51:23;;;;;;;32.73;14.03;;;6.30;1.00;;;;;;4989418;28;20487;-86
2022/12/05 15:53:56;;;;;;;32.63;14.63;;;6.40;1.00;;;;;;4987875;28;20432;-74
2022/12/05 15:56:44;;;;;;;24.10;10.47;;;6.30;1.00;;;;;;5011925;28;20953;-74
2022/12/05 15:59:20;;;;;;;29.33;11.87;;;6.40;1.00;;;;;;5075888;28;20492;-75
2022/12/05 16:01:53;;;;;;;29.93;11.87;;;6.40;1.00;;;;;;5079870;28;20936;-75
2022/12/05 16:04:39;;;;;;;34.03;11.93;;;6.50;1.00;;;;;;5073260;28;20462;-75
2022/12/05 16:07:08;;;;;;;32.33;12.50;;;6.50;1.00;;;;;;5073906;28;20413;-74
2022/12/05 16:09:39;;;;;;;29.20;11.80;;;6.50;1.00;;;;;;5086425;28;20435;-74
2022/12/05 16:12:24;;;;;;;28.57;12.60;;;6.60;1.00;;;;;;5085377;28;20460;-74
2022/12/05 16:14:54;;;;;;;34.30;11.20;;;6.60;1.00;;;;;;5082529;28;20474;-74
2022/12/05 16:17:20;;;;;;;28.30;12.10;;;6.60;1.00;;;;;;5083996;28;20454;-74
2022/12/05 16:20:15;;;;;;;29.97;12.30;;;6.80;1.00;;;;;;5087528;28;20423;-75
2022/12/05 16:22:46;;;;;;;35.67;13.47;;;6.70;1.00;;;;;;5073924;28;20421;-75
2022/12/05 16:25:25;;;;;;;24.83;11.47;;;6.70;1.00;;;;;;5084434;28;20436;-75
2022/12/05 16:28:06;;;;;;;28.27;12.67;;;6.60;1.00;;;;;;5081936;28;20416;-76
2022/12/05 16:30:36;;;;;;;32.13;14.03;;;6.50;1.00;;;;;;5073535;28;20841;-74
2022/12/05 16:33:14;;;;;;;29.50;13.67;;;6.50;1.00;;;;;;5077426;28;20892;-73
2022/12/05 16:35:42;;;;;;;38.73;14.37;;;6.50;1.00;;;;;;5077410;28;20432;-74
2022/12/05 16:38:24;;;;;;;32.80;14.47;;;6.50;1.00;;;;;;5080245;28;20478;-73
2022/12/05 16:41:08;;;;;;;37.67;13.20;;;6.40;1.00;;;;;;5079597;28;20881;-73
2022/12/05 16:43:44;;;;;;;38.00;14.83;;;6.40;1.00;;;;;;5079069;28;20427;-76
2022/12/05 16:46:13;;;;;;;33.63;15.33;;;6.40;1.00;;;;;;5078278;28;20846;-72
2022/12/05 16:49:19;;;;;;;35.63;15.87;;;6.30;1.00;;;;;;5078374;28;20428;-73
2022/12/05 16:51:53;;;;;;;38.47;17.47;;;6.40;1.00;;;;;;5038154;28;20466;-73
2022/12/05 16:54:24;;;;;;;34.93;15.73;;;6.60;1.00;;;;;;5036990;28;20433;-72
2022/12/05 16:56:55;;;;;;;35.33;14.97;;;6.40;1.00;;;;;;5024236;28;20446;-73
2022/12/05 16:59:31;;;;;;;36.83;14.53;;;6.50;1.00;;;;;;5032814;28;20446;-73
2022/12/05 17:01:57;;;;;;;34.50;15.00;;;6.50;1.00;;;;;;5037491;28;20473;-73
2022/12/05 17:04:22;;;;;;;41.80;15.93;;;6.50;1.00;;;;;;5027171;28;20925;-73
2022/12/05 17:06:49;;;;;;;38.33;16.50;;;6.50;1.00;;;;;;5030726;28;20184;-73
2022/12/05 17:09:14;;;;;;;41.30;14.73;;;6.50;1.00;;;;;;5026562;28;20189;-73
2022/12/05 17:11:43;;;;;;;29.73;13.67;;;6.50;1.00;;;;;;5037467;28;21070;-73
2022/12/05 17:14:14;;;;;;;36.90;14.77;;;6.60;1.00;;;;;;5042779;28;20214;-73
2022/12/05 17:16:43;;;;;;;33.47;14.40;;;6.50;1.00;;;;;;5033595;28;20418;-74
2022/12/05 17:19:10;;;;;;;33.70;13.60;;;6.50;1.00;;;;;;5041309;28;20410;-74
2022/12/05 17:21:37;;;;;;;29.83;14.17;;;6.50;1.00;;;;;;5042434;28;20517;-75
2022/12/05 17:24:03;;;;;;;36.97;15.20;;;6.50;1.00;;;;;;5034635;28;20415;-74
2022/12/05 17:26:29;;;;;;;39.27;14.87;;;6.40;1.00;;;;;;5041822;28;20418;-74
2022/12/05 17:28:55;;;;;;;29.70;13.80;;;6.50;1.00;;;;;;5078675;28;20490;-74
2022/12/05 17:31:25;;;;;;;28.30;13.70;;;6.60;1.00;;;;;;5087332;28;20203;-74
2022/12/05 17:33:52;;;;;;;33.60;12.93;;;6.60;1.00;;;;;;5082183;28;20896;-74
2022/12/05 17:36:24;;;;;;;32.00;13.57;;;6.60;1.00;;;;;;5092131;28;20904;-74
2022/12/05 17:42:14;;;;;;;29.83;13.87;;;6.60;1.00;;;;;;5078731;28;20451;-75
2022/12/05 17:44:40;;;;;;;38.43;12.80;;;6.60;1.00;;;;;;5080796;28;20436;-73
2022/12/05 17:47:07;;;;;;;26.83;12.93;;;6.50;1.00;;;;;;5088780;28;20935;-73
2022/12/05 17:49:33;;;;;;;27.50;12.80;;;6.60;1.00;;;;;;5081543;28;20514;-73
2022/12/05 17:52:02;;;;;;;28.07;12.27;;;6.60;1.00;;;;;;5077478;28;20539;-73
2022/12/05 17:54:29;;;;;;;31.40;12.53;;;6.60;1.00;;;;;;5076725;28;20174;-68
2022/12/05 17:56:54;;;;;;;27.10;11.50;;;6.60;1.00;;;;;;5090399;28;20420;-68
2022/12/05 17:59:23;;;;;;;31.63;13.37;;;6.50;1.00;;;;;;5084010;28;20412;-68
2022/12/05 18:05:12;;;;;;;23.80;12.20;;;6.50;1.00;;;;;;5083034;28;20469;-88
2022/12/05 18:14:22;;;;;;;25.60;12.13;;;6.40;1.00;;;;;;5076627;28;20459;-88
2022/12/05 18:17:18;;;;;;;25.50;12.40;;;6.50;1.00;;;;;;5085984;28;21060;-88
2022/12/05 18:20:07;;;;;;;21.87;11.77;;;6.50;1.00;;;;;;5083099;28;20887;-87
2022/12/05 18:23:18;;;;;;;23.90;13.20;;;6.30;1.00;;;;;;5081300;28;20427;-86
2022/12/05 18:29:05;;;;;;;22.50;10.33;;;6.30;1.00;;;;;;5078494;28;20448;-88
2022/12/05 18:34:53;;;;;;;22.67;10.23;;;6.30;1.00;;;;;;5076927;28;20201;-80
2022/12/05 18:40:40;;;;;;;16.87;7.97;;;6.30;1.00;;;;;;5080974;28;20173;-81
2022/12/05 18:43:30;;;;;;;16.70;9.57;;;6.30;1.00;;;;;;5089894;28;20781;-81
2022/12/05 18:49:18;;;;;;;16.80;8.60;;;6.30;1.00;;;;;;5074739;28;20400;-80
2022/12/05 18:55:06;;;;;;;20.03;8.00;;;6.20;1.00;;;;;;5075365;28;20228;-84
2022/12/05 18:57:31;;;;;;;11.43;7.40;;;6.30;1.00;;;;;;5078979;28;20894;-84
2022/12/05 19:04:06;;;;;;;11.23;6.70;;;6.10;1.00;;;;;;5075034;28;20303;-87
2022/12/05 19:10:36;;;;;;;13.27;8.13;;;6.20;1.00;;;;;;5080908;28;20416;-85